sensor_id;sensor_type;location;lat;lon;timestamp;P1;durP1;ratioP1;P2;durP2;ratioP2
54871;SDS011;43914;57.680;11.982;2023-02-01T00:01:54;16.80;;;1.80;;
54871;SDS011;43914;57.680;11.982;2023-02-01T00:04:20;12.20;;;1.80;;
54871;SDS011;43914;57.680;11.982;2023-02-01T00:06:46;20.70;;;2.30;;
54871;SDS011;43914;57.680;11.982;2023-02-01T00:09:11;18.50;;;2.20;;
54871;SDS011;43914;57.680;11.982;2023-02-01T00:11:37;13.80;;;2.00;;
54871;SDS011;43914;57.680;11.982;2023-02-01T00:14:02;15.60;;;1.80;;
54871;SDS011;43914;57.680;11.982;2023-02-01T00:16:32;20.00;;;2.60;;
54871;SDS011;43914;57.680;11.982;2023-02-01T00:21:28;11.80;;;1.90;;
54871;SDS011;43914;57.680;11.982;2023-02-01T00:23:54;17.30;;;2.00;;
54871;SDS011;43914;57.680;11.982;2023-02-01T00:26:22;14.30;;;2.00;;
54871;SDS011;43914;57.680;11.982;2023-02-01T00:28:58;17.80;;;2.30;;
54871;SDS011;43914;57.680;11.982;2023-02-01T00:31:23;16.70;;;2.10;;
54871;SDS011;43914;57.680;11.982;2023-02-01T00:33:50;18.30;;;2.30;;
54871;SDS011;43914;57.680;11.982;2023-02-01T00:36:21;17.50;;;2.00;;
54871;SDS011;43914;57.680;11.982;2023-02-01T00:38:47;15.30;;;2.10;;
54871;SDS011;43914;57.680;11.982;2023-02-01T00:41:17;16.10;;;2.60;;
54871;SDS011;43914;57.680;11.982;2023-02-01T00:43:45;18.80;;;2.30;;
54871;SDS011;43914;57.680;11.982;2023-02-01T00:46:20;19.30;;;2.40;;
54871;SDS011;43914;57.680;11.982;2023-02-01T00:48:49;25.70;;;2.50;;
54871;SDS011;43914;57.680;11.982;2023-02-01T00:51:16;19.10;;;2.30;;
54871;SDS011;43914;57.680;11.982;2023-02-01T00:53:47;12.80;;;2.30;;
54871;SDS011;43914;57.680;11.982;2023-02-01T00:56:16;16.80;;;2.40;;
54871;SDS011;43914;57.680;11.982;2023-02-01T00:58:42;17.10;;;2.50;;
54871;SDS011;43914;57.680;11.982;2023-02-01T01:01:15;16.10;;;2.50;;
54871;SDS011;43914;57.680;11.982;2023-02-01T01:03:57;15.30;;;2.30;;
54871;SDS011;43914;57.680;11.982;2023-02-01T01:06:25;17.80;;;2.20;;
54871;SDS011;43914;57.680;11.982;2023-02-01T01:08:54;16.40;;;2.20;;
54871;SDS011;43914;57.680;11.982;2023-02-01T01:11:28;16.30;;;2.30;;
54871;SDS011;43914;57.680;11.982;2023-02-01T01:13:57;18.20;;;2.30;;
54871;SDS011;43914;57.680;11.982;2023-02-01T01:16:24;19.50;;;2.30;;
54871;SDS011;43914;57.680;11.982;2023-02-01T01:18:51;15.20;;;2.60;;
54871;SDS011;43914;57.680;11.982;2023-02-01T01:21:18;17.30;;;2.50;;
54871;SDS011;43914;57.680;11.982;2023-02-01T01:23:44;17.90;;;2.40;;
54871;SDS011;43914;57.680;11.982;2023-02-01T01:26:15;19.40;;;2.60;;
54871;SDS011;43914;57.680;11.982;2023-02-01T01:28:44;18.20;;;2.60;;
54871;SDS011;43914;57.680;11.982;2023-02-01T01:31:10;18.00;;;2.10;;
54871;SDS011;43914;57.680;11.982;2023-02-01T01:33:38;20.40;;;2.60;;
54871;SDS011;43914;57.680;11.982;2023-02-01T01:36:04;19.40;;;2.70;;
54871;SDS011;43914;57.680;11.982;2023-02-01T01:38:31;12.50;;;2.50;;
54871;SDS011;43914;57.680;11.982;2023-02-01T01:40:56;17.00;;;2.70;;
54871;SDS011;43914;57.680;11.982;2023-02-01T01:43:22;15.10;;;2.50;;
54871;SDS011;43914;57.680;11.982;2023-02-01T01:45:48;21.90;;;3.00;;
54871;SDS011;43914;57.680;11.982;2023-02-01T01:48:20;21.80;;;3.10;;
54871;SDS011;43914;57.680;11.982;2023-02-01T01:53:25;17.00;;;3.10;;
54871;SDS011;43914;57.680;11.982;2023-02-01T01:55:54;16.90;;;2.50;;
54871;SDS011;43914;57.680;11.982;2023-02-01T01:58:24;20.00;;;2.40;;
54871;SDS011;43914;57.680;11.982;2023-02-01T02:00:53;14.90;;;2.20;;
54871;SDS011;43914;57.680;11.982;2023-02-01T02:03:37;16.30;;;2.50;;
54871;SDS011;43914;57.680;11.982;2023-02-01T02:06:11;11.00;;;1.90;;
54871;SDS011;43914;57.680;11.982;2023-02-01T02:08:56;15.50;;;1.90;;
54871;SDS011;43914;57.680;11.982;2023-02-01T02:11:22;21.20;;;2.80;;
54871;SDS011;43914;57.680;11.982;2023-02-01T02:13:48;22.30;;;3.00;;
54871;SDS011;43914;57.680;11.982;2023-02-01T02:21:52;20.00;;;3.20;;
54871;SDS011;43914;57.680;11.982;2023-02-01T02:38:32;20.20;;;3.20;;
54871;SDS011;43914;57.680;11.982;2023-02-01T02:43:37;26.20;;;3.90;;
54871;SDS011;43914;57.680;11.982;2023-02-01T02:49:26;23.50;;;3.50;;
54871;SDS011;43914;57.680;11.982;2023-02-01T02:52:02;30.30;;;3.70;;
54871;SDS011;43914;57.680;11.982;2023-02-01T02:54:53;21.20;;;3.20;;
54871;SDS011;43914;57.680;11.982;2023-02-01T03:00:30;22.60;;;3.50;;
54871;SDS011;43914;57.680;11.982;2023-02-01T03:03:17;28.00;;;4.10;;
54871;SDS011;43914;57.680;11.982;2023-02-01T03:06:01;24.40;;;3.50;;
54871;SDS011;43914;57.680;11.982;2023-02-01T03:08:30;29.30;;;3.50;;
54871;SDS011;43914;57.680;11.982;2023-02-01T03:11:06;25.20;;;3.30;;
54871;SDS011;43914;57.680;11.982;2023-02-01T03:16:06;20.80;;;3.20;;
54871;SDS011;43914;57.680;11.982;2023-02-01T03:21:16;23.40;;;3.70;;
54871;SDS011;43914;57.680;11.982;2023-02-01T03:23:49;23.90;;;3.80;;
54871;SDS011;43914;57.680;11.982;2023-02-01T03:26:18;28.30;;;3.90;;
54871;SDS011;43914;57.680;11.982;2023-02-01T03:28:52;25.10;;;3.70;;
54871;SDS011;43914;57.680;11.982;2023-02-01T03:31:22;32.50;;;4.20;;
54871;SDS011;43914;57.680;11.982;2023-02-01T03:33:48;22.30;;;4.20;;
54871;SDS011;43914;57.680;11.982;2023-02-01T03:36:17;27.10;;;4.00;;
54871;SDS011;43914;57.680;11.982;2023-02-01T03:46:49;27.90;;;4.20;;
54871;SDS011;43914;57.680;11.982;2023-02-01T03:49:28;25.00;;;4.30;;
54871;SDS011;43914;57.680;11.982;2023-02-01T03:51:58;24.50;;;4.20;;
54871;SDS011;43914;57.680;11.982;2023-02-01T03:54:28;32.30;;;4.10;;
54871;SDS011;43914;57.680;11.982;2023-02-01T03:56:56;16.40;;;3.30;;
54871;SDS011;43914;57.680;11.982;2023-02-01T03:59:25;24.10;;;4.00;;
54871;SDS011;43914;57.680;11.982;2023-02-01T04:01:51;26.30;;;4.30;;
54871;SDS011;43914;57.680;11.982;2023-02-01T04:04:18;30.40;;;4.10;;
54871;SDS011;43914;57.680;11.982;2023-02-01T04:06:47;28.70;;;3.90;;
54871;SDS011;43914;57.680;11.982;2023-02-01T04:09:13;24.70;;;4.00;;
54871;SDS011;43914;57.680;11.982;2023-02-01T04:11:39;27.70;;;4.10;;
54871;SDS011;43914;57.680;11.982;2023-02-01T04:14:04;31.50;;;4.50;;
54871;SDS011;43914;57.680;11.982;2023-02-01T04:16:32;23.60;;;3.40;;
54871;SDS011;43914;57.680;11.982;2023-02-01T04:18:59;33.80;;;4.30;;
54871;SDS011;43914;57.680;11.982;2023-02-01T04:21:25;27.20;;;4.30;;
54871;SDS011;43914;57.680;11.982;2023-02-01T04:23:51;31.40;;;4.30;;
54871;SDS011;43914;57.680;11.982;2023-02-01T04:26:16;31.00;;;4.80;;
54871;SDS011;43914;57.680;11.982;2023-02-01T04:28:42;31.10;;;4.60;;
54871;SDS011;43914;57.680;11.982;2023-02-01T04:31:07;26.70;;;4.10;;
54871;SDS011;43914;57.680;11.982;2023-02-01T04:33:33;30.80;;;3.60;;
54871;SDS011;43914;57.680;11.982;2023-02-01T04:35:59;27.30;;;4.20;;
54871;SDS011;43914;57.680;11.982;2023-02-01T04:38:25;27.00;;;4.30;;
54871;SDS011;43914;57.680;11.982;2023-02-01T04:40:52;26.40;;;3.60;;
54871;SDS011;43914;57.680;11.982;2023-02-01T04:43:17;31.20;;;4.00;;
54871;SDS011;43914;57.680;11.982;2023-02-01T04:45:46;32.20;;;4.40;;
54871;SDS011;43914;57.680;11.982;2023-02-01T04:48:13;31.00;;;4.40;;
54871;SDS011;43914;57.680;11.982;2023-02-01T04:50:39;37.50;;;4.60;;
54871;SDS011;43914;57.680;11.982;2023-02-01T04:53:05;28.80;;;5.30;;
54871;SDS011;43914;57.680;11.982;2023-02-01T04:55:30;30.10;;;4.50;;
54871;SDS011;43914;57.680;11.982;2023-02-01T04:57:56;28.80;;;4.40;;
54871;SDS011;43914;57.680;11.982;2023-02-01T05:00:21;31.20;;;4.70;;
54871;SDS011;43914;57.680;11.982;2023-02-01T05:02:47;25.90;;;4.00;;
54871;SDS011;43914;57.680;11.982;2023-02-01T05:05:13;28.40;;;4.60;;
54871;SDS011;43914;57.680;11.982;2023-02-01T05:07:38;34.40;;;5.50;;
54871;SDS011;43914;57.680;11.982;2023-02-01T05:10:04;25.70;;;4.00;;
54871;SDS011;43914;57.680;11.982;2023-02-01T05:12:29;35.30;;;5.30;;
54871;SDS011;43914;57.680;11.982;2023-02-01T05:15:14;26.40;;;3.70;;
54871;SDS011;43914;57.680;11.982;2023-02-01T05:17:39;24.30;;;4.80;;
54871;SDS011;43914;57.680;11.982;2023-02-01T05:20:06;23.00;;;3.80;;
54871;SDS011;43914;57.680;11.982;2023-02-01T05:22:32;30.60;;;4.40;;
54871;SDS011;43914;57.680;11.982;2023-02-01T05:24:58;24.90;;;3.50;;
54871;SDS011;43914;57.680;11.982;2023-02-01T05:27:23;29.00;;;4.50;;
54871;SDS011;43914;57.680;11.982;2023-02-01T05:29:49;21.90;;;3.50;;
54871;SDS011;43914;57.680;11.982;2023-02-01T05:32:14;24.30;;;3.00;;
54871;SDS011;43914;57.680;11.982;2023-02-01T05:34:40;25.40;;;3.80;;
54871;SDS011;43914;57.680;11.982;2023-02-01T05:37:05;23.50;;;3.50;;
54871;SDS011;43914;57.680;11.982;2023-02-01T05:39:31;24.70;;;4.30;;
54871;SDS011;43914;57.680;11.982;2023-02-01T05:41:56;30.80;;;4.60;;
54871;SDS011;43914;57.680;11.982;2023-02-01T05:44:22;30.70;;;4.10;;
54871;SDS011;43914;57.680;11.982;2023-02-01T05:46:47;28.70;;;4.10;;
54871;SDS011;43914;57.680;11.982;2023-02-01T05:49:13;26.10;;;3.70;;
54871;SDS011;43914;57.680;11.982;2023-02-01T05:51:38;24.20;;;4.00;;
54871;SDS011;43914;57.680;11.982;2023-02-01T05:54:03;32.70;;;4.30;;
54871;SDS011;43914;57.680;11.982;2023-02-01T05:56:29;21.50;;;3.10;;
54871;SDS011;43914;57.680;11.982;2023-02-01T05:58:54;24.50;;;3.80;;
54871;SDS011;43914;57.680;11.982;2023-02-01T06:01:20;22.70;;;4.00;;
54871;SDS011;43914;57.680;11.982;2023-02-01T06:03:45;29.60;;;3.80;;
54871;SDS011;43914;57.680;11.982;2023-02-01T06:06:11;23.40;;;4.40;;
54871;SDS011;43914;57.680;11.982;2023-02-01T06:08:36;23.70;;;3.50;;
54871;SDS011;43914;57.680;11.982;2023-02-01T06:11:05;23.60;;;3.50;;
54871;SDS011;43914;57.680;11.982;2023-02-01T06:13:31;27.40;;;4.00;;
54871;SDS011;43914;57.680;11.982;2023-02-01T06:15:58;29.20;;;3.80;;
54871;SDS011;43914;57.680;11.982;2023-02-01T06:18:24;25.30;;;4.10;;
54871;SDS011;43914;57.680;11.982;2023-02-01T06:20:55;19.60;;;3.20;;
54871;SDS011;43914;57.680;11.982;2023-02-01T06:23:22;27.60;;;4.00;;
54871;SDS011;43914;57.680;11.982;2023-02-01T06:25:52;24.50;;;3.70;;
54871;SDS011;43914;57.680;11.982;2023-02-01T06:28:24;30.90;;;4.60;;
54871;SDS011;43914;57.680;11.982;2023-02-01T06:30:50;33.80;;;5.10;;
54871;SDS011;43914;57.680;11.982;2023-02-01T06:33:15;31.30;;;4.60;;
54871;SDS011;43914;57.680;11.982;2023-02-01T06:35:41;29.70;;;4.20;;
54871;SDS011;43914;57.680;11.982;2023-02-01T06:38:09;26.80;;;4.00;;
54871;SDS011;43914;57.680;11.982;2023-02-01T06:40:36;24.90;;;4.10;;
54871;SDS011;43914;57.680;11.982;2023-02-01T06:43:02;31.50;;;4.30;;
54871;SDS011;43914;57.680;11.982;2023-02-01T06:45:29;30.90;;;4.30;;
54871;SDS011;43914;57.680;11.982;2023-02-01T06:47:54;29.50;;;4.20;;
54871;SDS011;43914;57.680;11.982;2023-02-01T06:50:20;38.10;;;4.30;;
54871;SDS011;43914;57.680;11.982;2023-02-01T06:52:46;28.10;;;4.30;;
54871;SDS011;43914;57.680;11.982;2023-02-01T06:55:12;32.50;;;3.90;;
54871;SDS011;43914;57.680;11.982;2023-02-01T06:57:38;24.80;;;3.50;;
54871;SDS011;43914;57.680;11.982;2023-02-01T07:00:04;27.80;;;3.70;;
54871;SDS011;43914;57.680;11.982;2023-02-01T07:02:32;25.10;;;3.10;;
54871;SDS011;43914;57.680;11.982;2023-02-01T07:04:57;24.50;;;3.60;;
54871;SDS011;43914;57.680;11.982;2023-02-01T07:07:22;20.70;;;2.90;;
54871;SDS011;43914;57.680;11.982;2023-02-01T07:09:48;21.60;;;3.10;;
54871;SDS011;43914;57.680;11.982;2023-02-01T07:12:14;35.70;;;3.80;;
54871;SDS011;43914;57.680;11.982;2023-02-01T07:14:40;20.00;;;3.30;;
54871;SDS011;43914;57.680;11.982;2023-02-01T07:17:06;36.70;;;3.60;;
54871;SDS011;43914;57.680;11.982;2023-02-01T07:19:32;22.10;;;3.90;;
54871;SDS011;43914;57.680;11.982;2023-02-01T07:21:57;29.40;;;3.50;;
54871;SDS011;43914;57.680;11.982;2023-02-01T07:24:23;25.10;;;3.40;;
54871;SDS011;43914;57.680;11.982;2023-02-01T07:26:49;22.00;;;3.20;;
54871;SDS011;43914;57.680;11.982;2023-02-01T07:29:16;22.00;;;3.10;;
54871;SDS011;43914;57.680;11.982;2023-02-01T07:31:42;17.30;;;2.70;;
54871;SDS011;43914;57.680;11.982;2023-02-01T07:34:08;20.80;;;3.20;;
54871;SDS011;43914;57.680;11.982;2023-02-01T07:36:34;19.90;;;2.90;;
54871;SDS011;43914;57.680;11.982;2023-02-01T07:39:01;20.80;;;3.00;;
54871;SDS011;43914;57.680;11.982;2023-02-01T07:41:28;20.00;;;2.90;;
54871;SDS011;43914;57.680;11.982;2023-02-01T07:43:53;22.90;;;2.70;;
54871;SDS011;43914;57.680;11.982;2023-02-01T07:46:19;20.20;;;2.90;;
54871;SDS011;43914;57.680;11.982;2023-02-01T07:48:45;23.40;;;2.90;;
54871;SDS011;43914;57.680;11.982;2023-02-01T07:51:11;17.00;;;2.60;;
54871;SDS011;43914;57.680;11.982;2023-02-01T07:53:39;16.80;;;2.80;;
54871;SDS011;43914;57.680;11.982;2023-02-01T07:56:15;16.80;;;3.40;;
54871;SDS011;43914;57.680;11.982;2023-02-01T07:58:46;15.40;;;2.90;;
54871;SDS011;43914;57.680;11.982;2023-02-01T08:01:16;18.10;;;2.40;;
54871;SDS011;43914;57.680;11.982;2023-02-01T08:03:59;17.80;;;2.60;;
54871;SDS011;43914;57.680;11.982;2023-02-01T08:06:26;20.40;;;2.50;;
54871;SDS011;43914;57.680;11.982;2023-02-01T08:08:54;24.30;;;3.00;;
54871;SDS011;43914;57.680;11.982;2023-02-01T08:11:20;21.60;;;2.50;;
54871;SDS011;43914;57.680;11.982;2023-02-01T08:13:47;23.00;;;3.50;;
54871;SDS011;43914;57.680;11.982;2023-02-01T08:16:14;15.20;;;2.60;;
54871;SDS011;43914;57.680;11.982;2023-02-01T08:18:41;22.40;;;3.00;;
54871;SDS011;43914;57.680;11.982;2023-02-01T08:23:42;17.40;;;2.70;;
54871;SDS011;43914;57.680;11.982;2023-02-01T08:26:09;15.90;;;2.70;;
54871;SDS011;43914;57.680;11.982;2023-02-01T08:28:36;20.60;;;3.00;;
54871;SDS011;43914;57.680;11.982;2023-02-01T08:31:06;19.90;;;3.10;;
54871;SDS011;43914;57.680;11.982;2023-02-01T08:33:33;14.90;;;2.50;;
54871;SDS011;43914;57.680;11.982;2023-02-01T08:36:01;25.40;;;2.90;;
54871;SDS011;43914;57.680;11.982;2023-02-01T08:38:27;20.20;;;3.10;;
54871;SDS011;43914;57.680;11.982;2023-02-01T08:40:53;21.70;;;3.40;;
54871;SDS011;43914;57.680;11.982;2023-02-01T08:43:18;25.50;;;3.30;;
54871;SDS011;43914;57.680;11.982;2023-02-01T08:45:44;23.30;;;3.40;;
54871;SDS011;43914;57.680;11.982;2023-02-01T08:48:10;22.10;;;3.40;;
54871;SDS011;43914;57.680;11.982;2023-02-01T08:50:35;27.10;;;3.20;;
54871;SDS011;43914;57.680;11.982;2023-02-01T08:53:01;23.40;;;3.10;;
54871;SDS011;43914;57.680;11.982;2023-02-01T08:55:26;26.00;;;3.60;;
54871;SDS011;43914;57.680;11.982;2023-02-01T08:57:52;20.70;;;3.40;;
54871;SDS011;43914;57.680;11.982;2023-02-01T09:00:18;23.30;;;3.60;;
54871;SDS011;43914;57.680;11.982;2023-02-01T09:02:44;20.70;;;3.00;;
54871;SDS011;43914;57.680;11.982;2023-02-01T09:05:10;17.90;;;2.60;;
54871;SDS011;43914;57.680;11.982;2023-02-01T09:07:37;24.80;;;3.50;;
54871;SDS011;43914;57.680;11.982;2023-02-01T09:10:03;29.30;;;3.90;;
54871;SDS011;43914;57.680;11.982;2023-02-01T09:12:31;21.20;;;3.00;;
54871;SDS011;43914;57.680;11.982;2023-02-01T09:14:58;29.90;;;4.10;;
54871;SDS011;43914;57.680;11.982;2023-02-01T09:17:25;29.70;;;3.90;;
54871;SDS011;43914;57.680;11.982;2023-02-01T09:19:51;28.60;;;3.80;;
54871;SDS011;43914;57.680;11.982;2023-02-01T09:22:17;25.90;;;3.80;;
54871;SDS011;43914;57.680;11.982;2023-02-01T09:24:42;28.80;;;4.00;;
54871;SDS011;43914;57.680;11.982;2023-02-01T09:27:08;23.70;;;3.60;;
54871;SDS011;43914;57.680;11.982;2023-02-01T09:29:34;25.30;;;3.90;;
54871;SDS011;43914;57.680;11.982;2023-02-01T09:31:59;29.70;;;3.80;;
54871;SDS011;43914;57.680;11.982;2023-02-01T09:34:25;24.50;;;3.50;;
54871;SDS011;43914;57.680;11.982;2023-02-01T09:36:50;28.00;;;4.00;;
54871;SDS011;43914;57.680;11.982;2023-02-01T09:39:16;32.10;;;4.10;;
54871;SDS011;43914;57.680;11.982;2023-02-01T09:41:54;24.80;;;4.50;;
54871;SDS011;43914;57.680;11.982;2023-02-01T09:44:29;25.10;;;4.40;;
54871;SDS011;43914;57.680;11.982;2023-02-01T09:47:13;23.00;;;3.60;;
54871;SDS011;43914;57.680;11.982;2023-02-01T09:55:30;30.60;;;4.60;;
54871;SDS011;43914;57.680;11.982;2023-02-01T10:00:34;30.80;;;4.10;;
54871;SDS011;43914;57.680;11.982;2023-02-01T10:03:03;27.80;;;3.90;;
54871;SDS011;43914;57.680;11.982;2023-02-01T10:08:19;24.00;;;4.00;;
54871;SDS011;43914;57.680;11.982;2023-02-01T10:10:52;32.30;;;4.10;;
54871;SDS011;43914;57.680;11.982;2023-02-01T10:17:11;19.50;;;3.50;;
54871;SDS011;43914;57.680;11.982;2023-02-01T10:19:56;31.80;;;4.20;;
54871;SDS011;43914;57.680;11.982;2023-02-01T10:25:22;29.70;;;4.00;;
54871;SDS011;43914;57.680;11.982;2023-02-01T10:27:54;32.30;;;4.60;;
54871;SDS011;43914;57.680;11.982;2023-02-01T10:30:22;34.50;;;4.40;;
54871;SDS011;43914;57.680;11.982;2023-02-01T10:32:51;20.20;;;3.20;;
54871;SDS011;43914;57.680;11.982;2023-02-01T10:35:27;24.70;;;3.20;;
54871;SDS011;43914;57.680;11.982;2023-02-01T10:37:58;24.80;;;3.80;;
54871;SDS011;43914;57.680;11.982;2023-02-01T10:40:27;21.00;;;3.90;;
54871;SDS011;43914;57.680;11.982;2023-02-01T10:42:54;30.90;;;4.00;;
54871;SDS011;43914;57.680;11.982;2023-02-01T10:45:27;25.90;;;3.70;;
54871;SDS011;43914;57.680;11.982;2023-02-01T10:47:56;21.50;;;3.50;;
54871;SDS011;43914;57.680;11.982;2023-02-01T10:53:21;28.60;;;3.80;;
54871;SDS011;43914;57.680;11.982;2023-02-01T10:55:54;26.60;;;3.00;;
54871;SDS011;43914;57.680;11.982;2023-02-01T10:58:26;25.30;;;3.60;;
54871;SDS011;43914;57.680;11.982;2023-02-01T11:01:04;26.50;;;4.70;;
54871;SDS011;43914;57.680;11.982;2023-02-01T11:06:04;26.60;;;3.70;;
54871;SDS011;43914;57.680;11.982;2023-02-01T11:08:55;30.10;;;4.40;;
54871;SDS011;43914;57.680;11.982;2023-02-01T11:11:23;34.60;;;4.10;;
54871;SDS011;43914;57.680;11.982;2023-02-01T11:13:53;29.40;;;4.20;;
54871;SDS011;43914;57.680;11.982;2023-02-01T11:16:20;37.20;;;4.70;;
54871;SDS011;43914;57.680;11.982;2023-02-01T11:18:46;27.90;;;4.30;;
54871;SDS011;43914;57.680;11.982;2023-02-01T11:21:19;29.90;;;4.40;;
54871;SDS011;43914;57.680;11.982;2023-02-01T11:23:47;32.90;;;4.80;;
54871;SDS011;43914;57.680;11.982;2023-02-01T11:26:26;35.90;;;5.40;;
54871;SDS011;43914;57.680;11.982;2023-02-01T11:31:27;33.60;;;5.10;;
54871;SDS011;43914;57.680;11.982;2023-02-01T11:33:55;38.60;;;5.50;;
54871;SDS011;43914;57.680;11.982;2023-02-01T11:36:34;28.60;;;4.40;;
54871;SDS011;43914;57.680;11.982;2023-02-01T11:39:09;28.00;;;3.90;;
54871;SDS011;43914;57.680;11.982;2023-02-01T11:41:54;27.70;;;5.10;;
54871;SDS011;43914;57.680;11.982;2023-02-01T11:47:24;27.40;;;4.00;;
54871;SDS011;43914;57.680;11.982;2023-02-01T11:49:57;26.30;;;4.20;;
54871;SDS011;43914;57.680;11.982;2023-02-01T12:14:35;33.50;;;3.90;;
54871;SDS011;43914;57.680;11.982;2023-02-01T12:39:00;19.60;;;2.90;;
54871;SDS011;43914;57.680;11.982;2023-02-01T12:41:50;24.30;;;3.30;;
54871;SDS011;43914;57.680;11.982;2023-02-01T12:49:46;23.40;;;3.60;;
54871;SDS011;43914;57.680;11.982;2023-02-01T12:52:30;24.90;;;4.30;;
54871;SDS011;43914;57.680;11.982;2023-02-01T12:55:15;24.90;;;3.90;;
54871;SDS011;43914;57.680;11.982;2023-02-01T12:57:54;30.40;;;4.10;;
54871;SDS011;43914;57.680;11.982;2023-02-01T13:00:36;27.80;;;4.10;;
54871;SDS011;43914;57.680;11.982;2023-02-01T13:05:53;25.30;;;3.70;;
54871;SDS011;43914;57.680;11.982;2023-02-01T13:09:14;28.60;;;4.10;;
54871;SDS011;43914;57.680;11.982;2023-02-01T13:11:31;31.10;;;4.50;;
54871;SDS011;43914;57.680;11.982;2023-02-01T13:19:42;34.50;;;4.90;;
54871;SDS011;43914;57.680;11.982;2023-02-01T13:24:56;32.50;;;5.30;;
54871;SDS011;43914;57.680;11.982;2023-02-01T13:27:28;38.30;;;4.90;;
54871;SDS011;43914;57.680;11.982;2023-02-01T13:41:28;34.90;;;5.00;;
54871;SDS011;43914;57.680;11.982;2023-02-01T13:44:03;35.40;;;5.10;;
54871;SDS011;43914;57.680;11.982;2023-02-01T13:46:50;32.40;;;5.30;;
54871;SDS011;43914;57.680;11.982;2023-02-01T13:49:28;31.90;;;5.00;;
54871;SDS011;43914;57.680;11.982;2023-02-01T13:52:03;36.10;;;5.40;;
54871;SDS011;43914;57.680;11.982;2023-02-01T13:54:31;31.60;;;4.50;;
54871;SDS011;43914;57.680;11.982;2023-02-01T13:57:00;34.80;;;4.70;;
54871;SDS011;43914;57.680;11.982;2023-02-01T14:05:09;25.50;;;4.20;;
54871;SDS011;43914;57.680;11.982;2023-02-01T14:07:36;27.40;;;4.30;;
54871;SDS011;43914;57.680;11.982;2023-02-01T14:16:11;26.50;;;4.30;;
54871;SDS011;43914;57.680;11.982;2023-02-01T14:24:40;26.90;;;4.30;;
54871;SDS011;43914;57.680;11.982;2023-02-01T14:29:39;25.80;;;4.50;;
54871;SDS011;43914;57.680;11.982;2023-02-01T14:32:20;30.90;;;4.90;;
54871;SDS011;43914;57.680;11.982;2023-02-01T14:34:51;34.00;;;5.40;;
54871;SDS011;43914;57.680;11.982;2023-02-01T14:39:52;31.60;;;4.80;;
54871;SDS011;43914;57.680;11.982;2023-02-01T15:08:56;17.20;;;2.00;;
54871;SDS011;43914;57.680;11.982;2023-02-01T15:11:26;11.90;;;1.50;;
54871;SDS011;43914;57.680;11.982;2023-02-01T15:13:52;12.40;;;1.90;;
54871;SDS011;43914;57.680;11.982;2023-02-01T15:16:22;9.50;;;1.60;;
54871;SDS011;43914;57.680;11.982;2023-02-01T15:19:09;8.90;;;1.20;;
54871;SDS011;43914;57.680;11.982;2023-02-01T15:21:43;11.60;;;1.10;;
54871;SDS011;43914;57.680;11.982;2023-02-01T15:24:12;10.40;;;1.20;;
54871;SDS011;43914;57.680;11.982;2023-02-01T15:27:05;9.00;;;1.20;;
54871;SDS011;43914;57.680;11.982;2023-02-01T15:29:32;8.10;;;1.10;;
54871;SDS011;43914;57.680;11.982;2023-02-01T15:31:58;11.40;;;1.40;;
54871;SDS011;43914;57.680;11.982;2023-02-01T15:34:33;9.50;;;1.30;;
54871;SDS011;43914;57.680;11.982;2023-02-01T15:37:14;9.90;;;1.50;;
54871;SDS011;43914;57.680;11.982;2023-02-01T15:42:30;6.70;;;1.00;;
54871;SDS011;43914;57.680;11.982;2023-02-01T15:44:56;10.20;;;1.20;;
54871;SDS011;43914;57.680;11.982;2023-02-01T15:47:25;14.40;;;1.20;;
54871;SDS011;43914;57.680;11.982;2023-02-01T15:49:55;8.70;;;1.20;;
54871;SDS011;43914;57.680;11.982;2023-02-01T15:52:35;5.90;;;1.20;;
54871;SDS011;43914;57.680;11.982;2023-02-01T15:55:07;9.60;;;1.30;;
54871;SDS011;43914;57.680;11.982;2023-02-01T15:57:42;7.40;;;1.10;;
54871;SDS011;43914;57.680;11.982;2023-02-01T16:02:55;10.20;;;1.20;;
54871;SDS011;43914;57.680;11.982;2023-02-01T16:05:37;11.40;;;1.10;;
54871;SDS011;43914;57.680;11.982;2023-02-01T16:10:40;6.30;;;1.00;;
54871;SDS011;43914;57.680;11.982;2023-02-01T16:13:11;8.10;;;1.00;;
54871;SDS011;43914;57.680;11.982;2023-02-01T16:15:37;8.90;;;1.70;;
54871;SDS011;43914;57.680;11.982;2023-02-01T16:18:04;7.70;;;1.00;;
54871;SDS011;43914;57.680;11.982;2023-02-01T16:20:32;6.50;;;1.10;;
54871;SDS011;43914;57.680;11.982;2023-02-01T16:23:00;6.70;;;1.00;;
54871;SDS011;43914;57.680;11.982;2023-02-01T16:25:29;7.90;;;1.30;;
54871;SDS011;43914;57.680;11.982;2023-02-01T16:27:55;7.10;;;1.00;;
54871;SDS011;43914;57.680;11.982;2023-02-01T16:30:20;8.00;;;0.90;;
54871;SDS011;43914;57.680;11.982;2023-02-01T16:32:49;8.80;;;1.20;;
54871;SDS011;43914;57.680;11.982;2023-02-01T16:35:29;11.60;;;1.20;;
54871;SDS011;43914;57.680;11.982;2023-02-01T16:38:11;4.90;;;0.90;;
54871;SDS011;43914;57.680;11.982;2023-02-01T16:40:40;5.30;;;1.00;;
54871;SDS011;43914;57.680;11.982;2023-02-01T16:43:17;6.70;;;1.00;;
54871;SDS011;43914;57.680;11.982;2023-02-01T16:45:45;8.80;;;1.20;;
54871;SDS011;43914;57.680;11.982;2023-02-01T16:48:29;9.60;;;1.80;;
54871;SDS011;43914;57.680;11.982;2023-02-01T16:50:57;8.70;;;2.10;;
54871;SDS011;43914;57.680;11.982;2023-02-01T16:53:25;10.80;;;1.60;;
54871;SDS011;43914;57.680;11.982;2023-02-01T16:55:55;7.80;;;1.20;;
54871;SDS011;43914;57.680;11.982;2023-02-01T16:58:23;8.90;;;1.40;;
54871;SDS011;43914;57.680;11.982;2023-02-01T17:00:50;11.50;;;1.60;;
54871;SDS011;43914;57.680;11.982;2023-02-01T17:03:19;7.00;;;1.60;;
54871;SDS011;43914;57.680;11.982;2023-02-01T17:05:46;7.80;;;1.50;;
54871;SDS011;43914;57.680;11.982;2023-02-01T17:08:15;8.60;;;1.40;;
54871;SDS011;43914;57.680;11.982;2023-02-01T17:10:45;6.40;;;1.40;;
54871;SDS011;43914;57.680;11.982;2023-02-01T17:13:14;7.00;;;1.10;;
54871;SDS011;43914;57.680;11.982;2023-02-01T17:15:43;8.20;;;1.50;;
54871;SDS011;43914;57.680;11.982;2023-02-01T17:18:14;8.20;;;1.60;;
54871;SDS011;43914;57.680;11.982;2023-02-01T17:20:42;5.30;;;1.20;;
54871;SDS011;43914;57.680;11.982;2023-02-01T17:23:08;5.60;;;1.20;;
54871;SDS011;43914;57.680;11.982;2023-02-01T17:25:33;8.20;;;1.30;;
54871;SDS011;43914;57.680;11.982;2023-02-01T17:27:59;7.50;;;1.30;;
54871;SDS011;43914;57.680;11.982;2023-02-01T17:30:25;7.70;;;1.00;;
54871;SDS011;43914;57.680;11.982;2023-02-01T17:32:50;5.00;;;1.00;;
54871;SDS011;43914;57.680;11.982;2023-02-01T17:35:20;7.30;;;1.20;;
54871;SDS011;43914;57.680;11.982;2023-02-01T17:37:49;6.50;;;1.00;;
54871;SDS011;43914;57.680;11.982;2023-02-01T17:40:16;6.90;;;1.20;;
54871;SDS011;43914;57.680;11.982;2023-02-01T17:42:42;5.00;;;1.00;;
54871;SDS011;43914;57.680;11.982;2023-02-01T17:45:16;4.20;;;1.00;;
54871;SDS011;43914;57.680;11.982;2023-02-01T17:48:04;4.50;;;1.20;;
54871;SDS011;43914;57.680;11.982;2023-02-01T17:50:32;9.50;;;1.70;;
54871;SDS011;43914;57.680;11.982;2023-02-01T17:53:00;9.60;;;1.80;;
54871;SDS011;43914;57.680;11.982;2023-02-01T17:55:27;8.30;;;2.00;;
54871;SDS011;43914;57.680;11.982;2023-02-01T17:57:53;10.10;;;2.40;;
54871;SDS011;43914;57.680;11.982;2023-02-01T18:00:19;5.30;;;1.40;;
54871;SDS011;43914;57.680;11.982;2023-02-01T18:02:47;9.00;;;1.30;;
54871;SDS011;43914;57.680;11.982;2023-02-01T18:05:23;6.10;;;1.00;;